This is the latest recevied weather packets stored in our database for station/object KE8DAF-15. If no packets are shown the sender has not sent any weather packets the latest 10 day(s).
| Time | Temp. | Humidity | Pressure | Rain* | Wind** | Luminosity | Snow |
|---|---|---|---|---|---|---|---|
| 1787438896 | 17.22° C | 98% | 995.9 hPa | 0 mm | - | - | - |
| 1787438596 | 17.22° C | 97% | 995.9 hPa | 0.25 mm | - | - | - |
| 1787438296 | 16.67° C | 97% | 995.9 hPa | 0.25 mm | - | - | - |
| 1787437996 | 16.67° C | 97% | 995.8 hPa | 0.51 mm | - | - | - |
| 1787437696 | 16.67° C | 97% | 995.7 hPa | 1.02 mm | - | - | - |
| 1787437396 | 16.67° C | 97% | 995.6 hPa | 1.02 mm | - | - | - |
| 1787437096 | 16.67° C | 97% | 995.6 hPa | 1.02 mm | - | - | - |
| 1787436796 | 16.67° C | 96% | 995.6 hPa | 1.02 mm | - | - | - |
| 1787436496 | 16.67° C | 96% | 995.7 hPa | 1.52 mm | - | - | - |
| 1787436196 | 16.67° C | 96% | 995.5 hPa | 3.3 mm | - | - | - |
| 1787435896 | 16.67° C | 95% | 995.4 hPa | 4.06 mm | - | - | - |
| 1787435596 | 16.67° C | 95% | 995.5 hPa | 4.06 mm | - | - | - |
| 1787435296 | 16.67° C | 94% | 995.5 hPa | 4.06 mm | - | - | - |
| 1787434996 | 16.67° C | 94% | 995.3 hPa | 3.81 mm | - | - | - |
| 1787434696 | 16.67° C | 93% | 995.3 hPa | 3.81 mm | - | - | - |
| 1787434396 | 17.22° C | 93% | 995.3 hPa | 3.56 mm | - | - | - |
| 1787434096 | 17.78° C | 93% | 995.3 hPa | 3.05 mm | - | - | - |
| 1787433797 | 17.78° C | 93% | 995 hPa | 3.05 mm | - | - | - |
| 1787433496 | 18.33° C | 92% | 995.1 hPa | 3.05 mm | - | - | - |
| 1787433197 | 18.89° C | 91% | 995 hPa | 3.05 mm | - | - | - |
| 1787432897 | 19.44° C | 89% | 995 hPa | 2.54 mm | - | - | - |
| 1787432597 | 20.56° C | 85% | 995 hPa | 0.76 mm | - | - | - |
| 1787432297 | 21.11° C | 81% | 995 hPa | 0 mm | - | - | - |
| 1787431997 | 21.11° C | 82% | 994.9 hPa | 0 mm | - | - | - |
| 1787431697 | 21.67° C | 81% | 994.9 hPa | 0 mm | - | - | - |
* Rain latest hour (hover to see other rain measurements)
** Current wind speed in m/s (hover to see current wind gust speed)